Time;durP1;ratioP1;P1;durP2;ratioP2;P2;SDS_P1;SDS_P2;PMS_P1;PMS_P2;Temp;Humidity;BMP_temperature;BMP_pressure;BME280_temperature;BME280_humidity;BME280_pressure;Samples;Min_cycle;Max_cycle;Signal;HPM_P1;HPM_P2
2024/01/01 00:01:08;;;;;;;169.8;103;;;;;;;4.83;94.81055;931.007;;;;
2024/01/01 00:03:46;;;;;;;113.1;67.8;;;;;;;4.84;94.64355;931.1136;;;;
2024/01/01 00:06:25;;;;;;;132.6;82.7;;;;;;;4.76;94.75;931.0834;;;;
2024/01/01 00:10:52;;;;;;;119.2;75.7;;;;;;;4.72;94.33789;931.0552;;;;
2024/01/01 00:13:31;;;;;;;84.3;50;;;;;;;4.64;94.74805;931.0985;;;;
2024/01/01 00:16:11;;;;;;;119.1;71.9;;;;;;;4.68;94.51953;931.0173;;;;
2024/01/01 00:18:51;;;;;;;154.5;92.1;;;;;;;4.66;94.68262;930.9727;;;;
2024/01/01 00:21:29;;;;;;;139.3;84.3;;;;;;;4.66;94.85352;930.9601;;;;
2024/01/01 00:24:10;;;;;;;121.5;75.1;;;;;;;4.65;94.92871;930.9543;;;;
2024/01/01 00:26:35;;;;;;;123.2;74.7;;;;;;;4.63;95.02539;930.9249;;;;
2024/01/01 00:29:03;;;;;;;116.9;69.9;;;;;;;4.64;95.04102;931.0244;;;;
2024/01/01 00:31:42;;;;;;;124.8;71.9;;;;;;;4.58;95.44141;931.0031;;;;
2024/01/01 00:34:20;;;;;;;118.8;71.7;;;;;;;4.61;95.43652;931.019;;;;
2024/01/01 00:36:45;;;;;;;117.5;70.1;;;;;;;4.62;95.42871;931.0397;;;;
2024/01/01 00:39:23;;;;;;;121.4;72;;;;;;;4.61;95.64063;930.9741;;;;
2024/01/01 00:42:01;;;;;;;127.6;77.2;;;;;;;4.6;95.85352;931.0612;;;;
2024/01/01 00:44:30;;;;;;;111.5;67.9;;;;;;;4.69;95.27637;931.0254;;;;
2024/01/01 00:47:08;;;;;;;78.3;47.4;;;;;;;4.65;95.49121;930.8945;;;;
2024/01/01 00:50:04;;;;;;;59.9;36.2;;;;;;;4.65;95.35645;930.9489;;;;
2024/01/01 00:52:42;;;;;;;47.7;28.1;;;;;;;4.63;95.39746;930.9241;;;;
2024/01/01 00:55:20;;;;;;;40.2;25.2;;;;;;;4.63;95.27148;931.0162;;;;
2024/01/01 00:58:01;;;;;;;45.2;29;;;;;;;4.55;95.65137;931.1501;;;;
2024/01/01 01:00:41;;;;;;;54.5;32.5;;;;;;;4.56;95.75488;931.1961;;;;
2024/01/01 01:03:19;;;;;;;61.1;35.4;;;;;;;4.62;95.58691;931.188;;;;
2024/01/01 01:06:00;;;;;;;60.9;36.7;;;;;;;4.58;95.74805;931.2067;;;;
2024/01/01 01:08:51;;;;;;;59.1;34.7;;;;;;;4.58;95.65723;931.1744;;;;
2024/01/01 01:11:32;;;;;;;55.7;33.4;;;;;;;4.55;95.79785;931.2738;;;;
2024/01/01 01:14:10;;;;;;;55.5;33.1;;;;;;;4.59;95.6709;931.3006;;;;
2024/01/01 01:16:48;;;;;;;56.3;31.6;;;;;;;4.53;96.17676;931.3563;;;;
2024/01/01 01:19:26;;;;;;;54.7;32.3;;;;;;;4.57;95.41895;931.4295;;;;
2024/01/01 01:22:04;;;;;;;47.5;29.7;;;;;;;4.56;95.93262;931.4356;;;;
2024/01/01 01:24:43;;;;;;;55;33.7;;;;;;;4.71;95.42676;931.5478;;;;
2024/01/01 01:27:20;;;;;;;64.5;37.7;;;;;;;4.6;96.07813;931.5429;;;;
2024/01/01 01:29:58;;;;;;;84.3;50.1;;;;;;;4.56;96.27051;931.4261;;;;
2024/01/01 01:32:36;;;;;;;108.1;63.4;;;;;;;4.55;96.33594;931.5118;;;;
2024/01/01 01:35:27;;;;;;;109;63.4;;;;;;;4.48;96.4209;931.4465;;;;
2024/01/01 01:38:08;;;;;;;109;65.2;;;;;;;4.42;96.4541;931.4958;;;;
2024/01/01 01:40:49;;;;;;;113.7;66.2;;;;;;;4.39;96.53809;931.5233;;;;
2024/01/01 01:43:27;;;;;;;120.1;68.1;;;;;;;4.36;96.49609;931.4729;;;;
2024/01/01 01:45:52;;;;;;;122.8;73;;;;;;;4.35;96.74121;931.5026;;;;
2024/01/01 01:48:31;;;;;;;132.7;76.8;;;;;;;4.32;96.80273;931.3807;;;;
2024/01/01 01:51:14;;;;;;;140.7;82.9;;;;;;;4.33;96.55566;931.3611;;;;
2024/01/01 01:53:52;;;;;;;140.5;82.8;;;;;;;4.43;95.97168;931.2981;;;;
2024/01/01 01:56:34;;;;;;;152.8;92.3;;;;;;;4.33;95.63477;931.269;;;;
2024/01/01 01:59:15;;;;;;;126.4;75.1;;;;;;;4.27;95.43066;931.2969;;;;
2024/01/01 02:01:53;;;;;;;128.1;74.4;;;;;;;4.34;94.75879;931.1802;;;;
2024/01/01 02:04:35;;;;;;;114.7;67.4;;;;;;;4.33;94.1377;931.22;;;;
2024/01/01 02:07:16;;;;;;;105.1;60;;;;;;;4.25;94.47949;931.2475;;;;
2024/01/01 02:09:54;;;;;;;96.9;56.7;;;;;;;4.2;94.61426;931.2823;;;;
2024/01/01 02:12:33;;;;;;;81.6;48.8;;;;;;;4.29;94.00586;931.2112;;;;
2024/01/01 02:15:08;;;;;;;54.8;34.9;;;;;;;4.31;93.68359;931.211;;;;
2024/01/01 02:17:46;;;;;;;39;24.4;;;;;;;4.23;94.05957;931.2723;;;;
2024/01/01 02:20:25;;;;;;;30.6;20;;;;;;;4.11;94.24707;931.267;;;;
2024/01/01 02:23:03;;;;;;;31.8;19.7;;;;;;;4.07;94.45313;931.1088;;;;
2024/01/01 02:25:41;;;;;;;29.7;19.4;;;;;;;4.06;94.34766;931.132;;;;
2024/01/01 02:28:19;;;;;;;28.5;17.9;;;;;;;3.99;94.00586;931.1381;;;;
2024/01/01 02:31:03;;;;;;;31.1;19;;;;;;;4;94.42578;931.0305;;;;
2024/01/01 02:33:41;;;;;;;31.6;19.7;;;;;;;4.04;94.0625;931.1569;;;;
2024/01/01 02:36:21;;;;;;;32.3;18.3;;;;;;;4.04;93.87109;931.2395;;;;
2024/01/01 02:39:00;;;;;;;34.3;20.7;;;;;;;3.94;93.83887;931.1953;;;;
2024/01/01 02:41:41;;;;;;;35.9;21.4;;;;;;;3.94;94.01855;931.2214;;;;
2024/01/01 02:44:21;;;;;;;38.1;22.9;;;;;;;3.88;93.93848;931.2341;;;;
2024/01/01 02:46:59;;;;;;;38.1;23.9;;;;;;;3.89;93.93848;931.2775;;;;
2024/01/01 02:49:37;;;;;;;37.4;22.6;;;;;;;3.85;94.16699;931.2618;;;;
2024/01/01 02:52:18;;;;;;;35.6;21.8;;;;;;;3.79;94.1416;931.2924;;;;
2024/01/01 02:54:59;;;;;;;35.6;22.6;;;;;;;3.78;94.31934;931.3496;;;;
2024/01/01 02:57:36;;;;;;;46.8;30.3;;;;;;;3.71;95.01172;931.3865;;;;
2024/01/01 03:00:14;;;;;;;66.4;37.7;;;;;;;3.84;94.55859;931.3986;;;;
2024/01/01 03:02:56;;;;;;;82.6;45;;;;;;;3.71;94.62988;931.3471;;;;
2024/01/01 03:05:35;;;;;;;62.4;34.4;;;;;;;3.7;94.66113;931.3312;;;;
2024/01/01 03:08:13;;;;;;;56.6;32.9;;;;;;;3.85;94.22363;931.2562;;;;
2024/01/01 03:10:51;;;;;;;49.2;28;;;;;;;3.84;93.94922;931.3922;;;;
2024/01/01 03:13:30;;;;;;;40.4;23.6;;;;;;;3.71;93.94434;931.3329;;;;
2024/01/01 03:15:55;;;;;;;34.5;22.1;;;;;;;3.66;94.63086;931.313;;;;
2024/01/01 03:18:34;;;;;;;34.4;20.3;;;;;;;3.79;94.2207;931.2838;;;;
2024/01/01 03:21:00;;;;;;;29.3;18.3;;;;;;;3.65;94.53906;931.301;;;;
2024/01/01 03:23:39;;;;;;;28.4;16.8;;;;;;;3.56;94.83301;931.2765;;;;
2024/01/01 03:26:17;;;;;;;26.6;16.2;;;;;;;3.57;95.04688;931.2758;;;;
2024/01/01 03:28:56;;;;;;;27.3;16.5;;;;;;;3.61;94.58496;931.2913;;;;
2024/01/01 03:31:34;;;;;;;24.9;15.8;;;;;;;3.49;94.33398;931.2967;;;;
2024/01/01 03:34:11;;;;;;;24;14;;;;;;;3.38;94.27637;931.3645;;;;
2024/01/01 03:36:50;;;;;;;25.8;14.6;;;;;;;3.37;94.66797;931.3289;;;;
2024/01/01 03:39:15;;;;;;;25.3;15.7;;;;;;;3.27;93.63477;931.3901;;;;
2024/01/01 03:41:41;;;;;;;31;17;;;;;;;3.24;94.05566;931.3281;;;;
2024/01/01 03:44:19;;;;;;;33.5;16.7;;;;;;;3.23;94.33008;931.3631;;;;
2024/01/01 03:46:57;;;;;;;28.8;16.9;;;;;;;3.2;94.41602;931.418;;;;
2024/01/01 03:49:39;;;;;;;27.2;16.8;;;;;;;3.09;95.11035;931.4294;;;;
2024/01/01 03:52:17;;;;;;;28.1;16.2;;;;;;;3.18;94.39844;931.3717;;;;
2024/01/01 03:54:59;;;;;;;30.2;16.4;;;;;;;3.16;94.03809;931.432;;;;
2024/01/01 03:57:37;;;;;;;28.8;16.5;;;;;;;3.04;94.0791;931.4698;;;;
2024/01/01 04:00:15;;;;;;;29.6;16.7;;;;;;;2.96;94.19531;931.4123;;;;
2024/01/01 04:03:08;;;;;;;31;16.9;;;;;;;3.04;94.04492;931.3889;;;;
2024/01/01 04:06:05;;;;;;;37.6;21.6;;;;;;;3.04;93.98926;931.4446;;;;
2024/01/01 04:08:44;;;;;;;44.9;25.5;;;;;;;3.02;94.57813;931.4133;;;;
2024/01/01 04:11:10;;;;;;;45.5;28.1;;;;;;;2.91;94.93555;931.4353;;;;
2024/01/01 04:13:48;;;;;;;47.1;30;;;;;;;2.82;95.78809;931.4501;;;;
2024/01/01 04:16:26;;;;;;;49.4;31.5;;;;;;;2.89;95.8623;931.4749;;;;
2024/01/01 04:19:06;;;;;;;49.8;31.2;;;;;;;3.02;95.2959;931.4801;;;;
2024/01/01 04:21:34;;;;;;;43.9;28.8;;;;;;;3.06;94.4082;931.5284;;;;
2024/01/01 04:24:11;;;;;;;40.1;25.8;;;;;;;2.83;94.66992;931.5377;;;;
2024/01/01 04:26:49;;;;;;;37.9;24.5;;;;;;;2.65;95.42578;931.5806;;;;
2024/01/01 04:29:27;;;;;;;36.5;23.2;;;;;;;2.69;95.1875;931.5391;;;;
2024/01/01 04:32:21;;;;;;;33;21.9;;;;;;;2.74;95.2334;931.5726;;;;
2024/01/01 04:34:48;;;;;;;33.5;21.2;;;;;;;2.85;94.82227;931.5337;;;;
2024/01/01 04:37:25;;;;;;;28.4;18.9;;;;;;;2.68;95.00781;931.4517;;;;
2024/01/01 04:40:05;;;;;;;27.5;17.9;;;;;;;2.82;95.01367;931.4437;;;;
2024/01/01 04:42:44;;;;;;;23.6;15.7;;;;;;;2.86;94.75684;931.4537;;;;
2024/01/01 04:45:39;;;;;;;23.6;14.6;;;;;;;2.72;95.13965;931.4653;;;;
2024/01/01 04:48:05;;;;;;;22.3;14;;;;;;;2.79;95.19824;931.4372;;;;
2024/01/01 04:50:34;;;;;;;18.5;12.3;;;;;;;2.74;95.45703;931.447;;;;
2024/01/01 04:53:00;;;;;;;19.7;12.3;;;;;;;2.87;95.3291;931.4342;;;;
2024/01/01 04:55:28;;;;;;;17.7;11.5;;;;;;;2.85;94.94531;931.5179;;;;
2024/01/01 04:58:06;;;;;;;22.3;14;;;;;;;2.77;95.12695;931.5516;;;;
2024/01/01 05:00:32;;;;;;;22.2;14.4;;;;;;;2.69;95.24316;931.5494;;;;
2024/01/01 05:03:10;;;;;;;26.8;18.1;;;;;;;2.72;95.23828;931.4604;;;;
2024/01/01 05:05:47;;;;;;;30.2;19.9;;;;;;;2.71;94.86816;931.421;;;;
2024/01/01 05:08:25;;;;;;;30.2;20;;;;;;;2.59;95.24316;931.3961;;;;
2024/01/01 05:11:09;;;;;;;27.4;18.8;;;;;;;2.61;95.41797;931.4144;;;;
2024/01/01 05:13:37;;;;;;;28.7;18.9;;;;;;;2.58;95.5332;931.4838;;;;
2024/01/01 05:16:17;;;;;;;26.9;18.7;;;;;;;2.63;95.43262;931.5005;;;;
2024/01/01 05:19:07;;;;;;;28.5;19.7;;;;;;;2.71;95.32617;931.4995;;;;
2024/01/01 05:21:47;;;;;;;27.4;18.2;;;;;;;2.78;95.25488;931.566;;;;
2024/01/01 05:24:25;;;;;;;31.5;21.3;;;;;;;2.77;95.31738;931.6696;;;;
2024/01/01 05:27:03;;;;;;;33.2;21.1;;;;;;;2.73;95.4668;931.662;;;;
2024/01/01 05:29:28;;;;;;;31.7;20.9;;;;;;;2.8;95.78516;931.6738;;;;
2024/01/01 05:32:07;;;;;;;33.2;21.6;;;;;;;2.88;95.55762;931.6594;;;;
2024/01/01 05:34:45;;;;;;;30.8;22.1;;;;;;;2.77;95.58691;931.6733;;;;
2024/01/01 05:37:24;;;;;;;33.1;22.6;;;;;;;2.7;95.70508;931.6792;;;;
2024/01/01 05:39:52;;;;;;;35.8;23.9;;;;;;;2.7;95.53711;931.7256;;;;
2024/01/01 05:42:31;;;;;;;28.7;19.6;;;;;;;2.72;95.13965;931.7381;;;;
2024/01/01 05:45:13;;;;;;;29.8;19.9;;;;;;;2.71;95.1709;931.77;;;;
2024/01/01 05:47:52;;;;;;;31;20.1;;;;;;;2.59;95.10938;931.7081;;;;
2024/01/01 05:50:30;;;;;;;32.5;20.4;;;;;;;2.62;95.07227;931.6228;;;;
2024/01/01 05:53:08;;;;;;;29.5;18.5;;;;;;;2.55;95.68164;931.6464;;;;
2024/01/01 05:55:34;;;;;;;28.2;19.5;;;;;;;2.67;95.39453;931.6429;;;;
2024/01/01 05:58:11;;;;;;;31.2;19.9;;;;;;;2.77;94.57813;931.8691;;;;
2024/01/01 06:00:54;;;;;;;31.4;19.2;;;;;;;2.69;94.53711;931.8951;;;;
2024/01/01 06:03:35;;;;;;;32.1;19.3;;;;;;;2.55;95;932.0143;;;;
2024/01/01 06:06:00;;;;;;;25.4;16.9;;;;;;;2.56;95.37207;932.1347;;;;
2024/01/01 06:08:39;;;;;;;25.4;17.3;;;;;;;2.54;95.39941;932.274;;;;
2024/01/01 06:11:17;;;;;;;24.7;16.3;;;;;;;2.66;95.38281;932.2543;;;;
2024/01/01 06:13:55;;;;;;;24.7;16.9;;;;;;;2.66;95.77539;932.4249;;;;
2024/01/01 06:16:33;;;;;;;26.4;17.6;;;;;;;2.71;95.5293;932.3273;;;;
2024/01/01 06:19:16;;;;;;;28.1;19.5;;;;;;;2.76;95.42773;932.4874;;;;
2024/01/01 06:21:54;;;;;;;29.3;19.3;;;;;;;2.73;95.78027;932.4763;;;;
2024/01/01 06:24:32;;;;;;;29.6;19.2;;;;;;;2.77;95.67676;932.4964;;;;
2024/01/01 06:27:16;;;;;;;27.4;17.7;;;;;;;2.72;95.87695;932.5648;;;;
2024/01/01 06:30:34;;;;;;;27.9;17.9;;;;;;;2.77;95.35156;932.5552;;;;
2024/01/01 06:33:13;;;;;;;25.1;16.9;;;;;;;2.73;95.28711;932.5321;;;;
2024/01/01 06:35:52;;;;;;;25.9;16.8;;;;;;;2.8;95.18945;932.5875;;;;
2024/01/01 06:38:31;;;;;;;23.9;15.7;;;;;;;2.85;94.79785;932.4951;;;;
2024/01/01 06:41:09;;;;;;;22.7;13.5;;;;;;;2.75;95.38086;932.6223;;;;
2024/01/01 06:43:51;;;;;;;21.2;12.5;;;;;;;2.85;95.03516;932.6626;;;;
2024/01/01 06:46:29;;;;;;;17.5;10.9;;;;;;;2.81;95.38184;932.6872;;;;
2024/01/01 06:49:07;;;;;;;14.6;9.3;;;;;;;2.88;95.2207;932.6729;;;;
2024/01/01 06:51:49;;;;;;;14.7;10.4;;;;;;;2.84;95.19922;932.6376;;;;
2024/01/01 06:54:33;;;;;;;17.1;10.3;;;;;;;2.7;95.70508;932.7646;;;;
2024/01/01 06:57:15;;;;;;;15;9;;;;;;;2.76;95.57324;932.735;;;;
2024/01/01 06:59:40;;;;;;;13.9;8.5;;;;;;;2.83;95.41016;932.7697;;;;
2024/01/01 07:02:18;;;;;;;13.7;9.2;;;;;;;2.94;94.97461;932.7704;;;;
2024/01/01 07:04:44;;;;;;;12.1;8.3;;;;;;;2.9;95.12207;932.7999;;;;
2024/01/01 07:07:22;;;;;;;10.6;7;;;;;;;2.93;94.99512;932.8535;;;;
2024/01/01 07:10:03;;;;;;;10.4;6.8;;;;;;;2.85;94.97949;932.8167;;;;
2024/01/01 07:12:42;;;;;;;8.4;5.7;;;;;;;2.97;94.68945;932.9136;;;;
2024/01/01 07:15:20;;;;;;;15.3;8.5;;;;;;;2.91;94.72168;932.9733;;;;
2024/01/01 07:17:59;;;;;;;13.2;7.8;;;;;;;2.87;94.75879;933.0139;;;;
2024/01/01 07:20:25;;;;;;;11.2;7.4;;;;;;;2.79;94.94043;932.9992;;;;
2024/01/01 07:22:50;;;;;;;12.6;7.5;;;;;;;2.9;94.75391;932.8701;;;;
2024/01/01 07:25:29;;;;;;;25.4;14.3;;;;;;;2.85;94.76563;932.856;;;;
2024/01/01 07:28:13;;;;;;;16.6;9.4;;;;;;;2.94;94.64941;932.8875;;;;
2024/01/01 07:31:03;;;;;;;10.5;7.6;;;;;;;2.99;94.31152;932.9086;;;;
2024/01/01 07:35:14;;;;;;;8.9;6.4;;;;;;;3.06;93.80078;933.0195;;;;
2024/01/01 07:37:53;;;;;;;7.3;5.6;;;;;;;3.04;93.69531;932.9874;;;;
2024/01/01 07:40:31;;;;;;;5.3;4.5;;;;;;;3.09;93.55957;932.9849;;;;
2024/01/01 07:43:09;;;;;;;7;4.8;;;;;;;3.02;93.79297;932.9615;;;;
2024/01/01 07:45:41;;;;;;;8.7;6.2;;;;;;;3.15;93.51758;933.0024;;;;
2024/01/01 07:48:27;;;;;;;8;6.1;;;;;;;3.02;93.88184;933.0419;;;;
2024/01/01 07:51:05;;;;;;;7.9;5.4;;;;;;;3.03;93.81738;933.0673;;;;
2024/01/01 07:53:44;;;;;;;6.1;4.7;;;;;;;3.04;93.78516;933.1588;;;;
2024/01/01 07:56:23;;;;;;;6;4.6;;;;;;;3.03;93.69336;933.1428;;;;
2024/01/01 07:59:03;;;;;;;6;4.6;;;;;;;3.04;93.68652;933.0875;;;;
2024/01/01 08:01:41;;;;;;;7.9;5.3;;;;;;;3.14;93.39355;933.1713;;;;
2024/01/01 08:04:26;;;;;;;7;4.9;;;;;;;3.16;92.99414;933.1884;;;;
2024/01/01 08:06:52;;;;;;;6;4.4;;;;;;;3.18;93.0293;933.1881;;;;
2024/01/01 08:09:29;;;;;;;5.4;4.3;;;;;;;3.22;92.9043;933.1941;;;;
2024/01/01 08:12:07;;;;;;;5.9;3.4;;;;;;;3.31;92.7334;933.1267;;;;
2024/01/01 08:14:33;;;;;;;4;3;;;;;;;3.37;92.53418;933.1669;;;;
2024/01/01 08:17:11;;;;;;;3.9;3;;;;;;;3.69;92.06152;933.2053;;;;
2024/01/01 08:19:49;;;;;;;4.7;3.9;;;;;;;4.08;91.77637;933.2349;;;;
2024/01/01 08:22:33;;;;;;;4.5;3.5;;;;;;;4.57;90.22852;933.1599;;;;
2024/01/01 08:25:13;;;;;;;3.9;3.5;;;;;;;5.01;88.29297;933.2576;;;;
2024/01/01 08:27:54;;;;;;;5.1;3.5;;;;;;;5.71;86.49414;933.3376;;;;
2024/01/01 08:30:32;;;;;;;7.5;5.1;;;;;;;5.78;82.62305;933.3736;;;;
2024/01/01 08:33:13;;;;;;;9.7;7;;;;;;;5.32;83.78613;933.4348;;;;
2024/01/01 08:35:57;;;;;;;8.3;6.1;;;;;;;4.99;85.0166;933.428;;;;
2024/01/01 08:39:03;;;;;;;7.3;5.2;;;;;;;4.74;85.31934;933.4324;;;;
2024/01/01 08:41:29;;;;;;;8.8;5.9;;;;;;;4.5;86.50879;933.573;;;;
2024/01/01 08:44:10;;;;;;;8.3;5.9;;;;;;;4.37;87.58398;933.6002;;;;
2024/01/01 08:46:49;;;;;;;6.6;5.3;;;;;;;4.31;88.02148;933.5939;;;;
2024/01/01 08:49:26;;;;;;;8.6;6.5;;;;;;;4.19;88.50488;933.5701;;;;
2024/01/01 08:52:07;;;;;;;8.1;5.7;;;;;;;4.12;88.9834;933.5834;;;;
2024/01/01 08:54:45;;;;;;;8.1;5.2;;;;;;;4.13;89.22363;933.6467;;;;
2024/01/01 08:57:24;;;;;;;8.6;6.1;;;;;;;4.17;89.58008;933.6454;;;;
2024/01/01 09:00:02;;;;;;;9.8;6.5;;;;;;;4.49;90.50195;933.5994;;;;
2024/01/01 09:02:42;;;;;;;8.7;5;;;;;;;5.11;88.93164;933.4727;;;;
2024/01/01 09:05:19;;;;;;;7.3;4.7;;;;;;;5.74;85.54004;933.4377;;;;
2024/01/01 09:08:00;;;;;;;6.9;4.7;;;;;;;6.25;83.89063;933.4207;;;;
2024/01/01 09:10:30;;;;;;;8.3;5.6;;;;;;;6.61;81.46094;933.5096;;;;
2024/01/01 09:13:11;;;;;;;10.1;7.4;;;;;;;6.69;79.81152;933.6049;;;;
2024/01/01 09:16:03;;;;;;;12.8;8.2;;;;;;;7.11;79.82422;933.5994;;;;
2024/01/01 09:18:41;;;;;;;9.4;6.7;;;;;;;7.69;76.8125;933.6066;;;;
2024/01/01 09:21:07;;;;;;;31.5;17.5;;;;;;;8.08;75.99707;933.6378;;;;
2024/01/01 09:23:50;;;;;;;9.7;5.6;;;;;;;8.42;74.30566;933.57;;;;
2024/01/01 09:26:28;;;;;;;4.9;4.4;;;;;;;8.63;72.97656;933.5446;;;;
2024/01/01 09:29:06;;;;;;;5.7;3.9;;;;;;;9.02;71.3252;933.6317;;;;
2024/01/01 09:31:40;;;;;;;48.7;33.1;;;;;;;9.22;70.79102;933.5858;;;;
2024/01/01 09:34:18;;;;;;;17.8;10.9;;;;;;;9.25;69.22266;933.5867;;;;
2024/01/01 09:36:56;;;;;;;6.5;4.6;;;;;;;8.98;69.86328;933.5684;;;;
2024/01/01 09:39:24;;;;;;;3.5;2.9;;;;;;;8.62;70.83887;933.6969;;;;
2024/01/01 09:42:05;;;;;;;7;3.5;;;;;;;8.48;71.75879;933.6714;;;;
2024/01/01 09:44:45;;;;;;;13;5.9;;;;;;;8.4;72.26953;933.7117;;;;
2024/01/01 09:47:24;;;;;;;4;2.4;;;;;;;8.31;70.50488;933.7191;;;;
2024/01/01 09:49:50;;;;;;;2;1.6;;;;;;;8.06;72.37012;933.6789;;;;
2024/01/01 09:52:28;;;;;;;5;1.6;;;;;;;7.78;72.86816;933.633;;;;
2024/01/01 09:55:07;;;;;;;3.2;2;;;;;;;7.68;73.57715;933.623;;;;
2024/01/01 09:57:51;;;;;;;2.5;1.7;;;;;;;7.46;73.86719;933.5549;;;;
2024/01/01 10:00:29;;;;;;;2.2;1.9;;;;;;;7.4;73.30273;933.588;;;;
2024/01/01 10:03:07;;;;;;;2.4;1.8;;;;;;;7.24;73.38965;933.6403;;;;
2024/01/01 10:05:48;;;;;;;3.3;2.1;;;;;;;7.44;73.57031;933.6071;;;;
2024/01/01 10:08:20;;;;;;;2.6;1.8;;;;;;;7.82;75.09766;933.64;;;;
2024/01/01 10:11:03;;;;;;;3.4;2.3;;;;;;;8.08;74.88379;933.618;;;;
2024/01/01 10:13:58;;;;;;;5.5;2.5;;;;;;;8.33;73.45996;933.5851;;;;
2024/01/01 10:16:40;;;;;;;3.8;2.4;;;;;;;8.25;71.17578;933.5313;;;;
2024/01/01 10:19:18;;;;;;;2.8;2;;;;;;;8.14;72.61133;933.5283;;;;
2024/01/01 10:21:56;;;;;;;2.4;1.8;;;;;;;8.03;73.60352;933.5223;;;;
2024/01/01 10:24:22;;;;;;;3.4;1.5;;;;;;;8.25;72.89063;933.4361;;;;
2024/01/01 10:27:04;;;;;;;2;1.5;;;;;;;8.26;71.75684;933.4258;;;;
2024/01/01 10:29:41;;;;;;;2.6;1.4;;;;;;;8.15;71.51172;933.3619;;;;
2024/01/01 10:32:21;;;;;;;3.3;1.4;;;;;;;8.24;72.10547;933.44;;;;
2024/01/01 10:34:59;;;;;;;2.1;1.9;;;;;;;8.39;72.50586;933.395;;;;
2024/01/01 10:37:39;;;;;;;2.1;1.3;;;;;;;8.83;68.78125;933.3091;;;;
2024/01/01 10:40:17;;;;;;;2.2;1.3;;;;;;;8.82;68.03027;933.3711;;;;
2024/01/01 10:42:55;;;;;;;1.7;1.2;;;;;;;8.51;69.44629;933.4709;;;;
2024/01/01 10:45:27;;;;;;;2;1.2;;;;;;;8.34;69.37305;933.4413;;;;
2024/01/01 10:47:57;;;;;;;1.4;0.9;;;;;;;8.29;68.38867;933.3652;;;;
2024/01/01 10:50:24;;;;;;;1.4;0.9;;;;;;;8.17;69.00488;933.3716;;;;
2024/01/01 10:53:04;;;;;;;2.2;1.3;;;;;;;8.07;69.89746;933.3571;;;;
2024/01/01 10:55:51;;;;;;;1.6;1.2;;;;;;;8.24;70.00488;933.4528;;;;
2024/01/01 10:58:18;;;;;;;2.8;1.3;;;;;;;8.11;70.39258;933.4431;;;;
2024/01/01 11:01:05;;;;;;;2.9;1.9;;;;;;;7.93;71.83887;933.5383;;;;
2024/01/01 11:03:50;;;;;;;7;5;;;;;;;7.79;71.65527;933.5293;;;;
2024/01/01 11:06:19;;;;;;;5.9;4.6;;;;;;;7.91;73.37695;933.4778;;;;
2024/01/01 11:08:51;;;;;;;3;2;;;;;;;7.93;70.54492;933.4853;;;;
2024/01/01 11:11:31;;;;;;;1.7;1.3;;;;;;;7.96;70.48145;933.3239;;;;
2024/01/01 11:14:09;;;;;;;2.3;1.1;;;;;;;8.05;69.37207;933.3592;;;;
2024/01/01 11:16:59;;;;;;;2.9;1.3;;;;;;;8.1;69.60742;933.3597;;;;
2024/01/01 11:19:27;;;;;;;3.1;1.5;;;;;;;8.2;69.69043;933.367;;;;
2024/01/01 11:22:20;;;;;;;1.9;1.2;;;;;;;8.06;70.31543;933.2888;;;;
2024/01/01 11:25:08;;;;;;;2.9;1.5;;;;;;;8.07;68.9209;933.361;;;;
2024/01/01 11:27:38;;;;;;;1.8;1.1;;;;;;;8.07;68.3418;933.3681;;;;
2024/01/01 11:30:21;;;;;;;1.5;1.1;;;;;;;8.02;68.94727;933.3811;;;;
2024/01/01 11:32:59;;;;;;;1.6;1.3;;;;;;;8.09;68.77637;933.3731;;;;
2024/01/01 11:35:26;;;;;;;2;1;;;;;;;7.9;68.78125;933.439;;;;
2024/01/01 11:38:06;;;;;;;2.5;1.1;;;;;;;7.71;68.80762;933.4055;;;;
2024/01/01 11:40:46;;;;;;;1.2;1.1;;;;;;;7.72;69.41992;933.4175;;;;
2024/01/01 11:43:24;;;;;;;1.9;1.3;;;;;;;7.59;70.66992;933.4662;;;;
2024/01/01 11:46:02;;;;;;;1.9;1.2;;;;;;;7.6;71.6123;933.4672;;;;
2024/01/01 11:48:40;;;;;;;3.6;1.2;;;;;;;7.61;71.85352;933.4637;;;;
2024/01/01 11:51:21;;;;;;;1.7;1.1;;;;;;;7.74;70.18262;933.3495;;;;
2024/01/01 11:53:46;;;;;;;1.6;1.1;;;;;;;7.69;71.15234;933.4196;;;;
2024/01/01 11:56:24;;;;;;;2.2;1.4;;;;;;;7.62;72.10352;933.5003;;;;
2024/01/01 11:59:02;;;;;;;1.7;1.3;;;;;;;7.65;71.09961;933.4412;;;;
2024/01/01 12:01:40;;;;;;;1.8;1.4;;;;;;;7.62;71.70801;933.4076;;;;
2024/01/01 12:04:22;;;;;;;1.9;1.1;;;;;;;7.62;71.26367;933.4836;;;;
2024/01/01 12:07:13;;;;;;;1.7;1.1;;;;;;;7.58;71.63184;933.4456;;;;
2024/01/01 12:09:39;;;;;;;2;1.2;;;;;;;7.6;72.24902;933.5417;;;;
2024/01/01 12:12:20;;;;;;;3;2;;;;;;;7.72;73.51465;933.4523;;;;
2024/01/01 12:15:01;;;;;;;1.5;1.2;;;;;;;7.65;72.5293;933.4428;;;;
2024/01/01 12:17:35;;;;;;;1.9;1.1;;;;;;;7.64;72.62793;933.4395;;;;
2024/01/01 12:20:25;;;;;;;1.7;1.2;;;;;;;7.63;71.63965;933.3625;;;;
2024/01/01 12:23:03;;;;;;;1.4;1.3;;;;;;;7.59;72.40625;933.3047;;;;
2024/01/01 12:25:51;;;;;;;2.3;1.5;;;;;;;7.53;70.875;933.2533;;;;
2024/01/01 12:28:40;;;;;;;2.7;1.4;;;;;;;7.65;70.45313;933.2336;;;;
2024/01/01 12:31:19;;;;;;;2.8;1.3;;;;;;;7.74;69.74023;933.2109;;;;
2024/01/01 12:33:59;;;;;;;1.4;1.1;;;;;;;7.73;70.39844;933.1902;;;;
2024/01/01 12:36:39;;;;;;;1.8;1.3;;;;;;;7.75;73.1582;933.2285;;;;
2024/01/01 12:39:06;;;;;;;1.9;1.6;;;;;;;7.74;73.89355;933.2085;;;;
2024/01/01 12:41:44;;;;;;;3;1.6;;;;;;;7.78;73.31055;933.2715;;;;
2024/01/01 12:44:27;;;;;;;2.5;1.5;;;;;;;7.81;71.36328;933.17;;;;
2024/01/01 12:47:07;;;;;;;3.9;1.6;;;;;;;7.82;72.39941;933.1131;;;;
2024/01/01 12:50:06;;;;;;;2;1.4;;;;;;;7.82;69.07422;933.0544;;;;
2024/01/01 12:52:46;;;;;;;2.6;1.5;;;;;;;7.87;68.63965;933.0312;;;;
2024/01/01 12:55:24;;;;;;;2.1;1.5;;;;;;;7.89;69.41406;933.0259;;;;
2024/01/01 12:58:02;;;;;;;2.1;0.9;;;;;;;7.88;68.64258;933.0575;;;;
2024/01/01 13:00:40;;;;;;;2.1;0.9;;;;;;;7.88;67.97266;932.9489;;;;
2024/01/01 13:03:21;;;;;;;1.9;1.1;;;;;;;7.85;68.99902;933.0477;;;;
2024/01/01 13:06:15;;;;;;;1.9;1.5;;;;;;;7.86;69.94238;932.9938;;;;
2024/01/01 13:08:54;;;;;;;2.1;0.8;;;;;;;7.82;68.72168;932.9917;;;;
2024/01/01 13:11:23;;;;;;;1.4;1.1;;;;;;;7.71;70.39453;932.9672;;;;
2024/01/01 13:14:01;;;;;;;2.7;1.6;;;;;;;7.67;70.68359;932.8908;;;;
2024/01/01 13:16:41;;;;;;;2.8;1.5;;;;;;;7.65;70.68066;932.9119;;;;
2024/01/01 13:19:21;;;;;;;2.5;1.4;;;;;;;7.57;71.06348;932.9717;;;;
2024/01/01 13:21:59;;;;;;;3.1;1.4;;;;;;;7.48;72.0127;932.9683;;;;
2024/01/01 13:24:24;;;;;;;1.9;1.2;;;;;;;7.48;71.93262;932.9382;;;;
2024/01/01 13:27:03;;;;;;;1.8;1;;;;;;;7.53;70.28516;932.9174;;;;
2024/01/01 13:29:43;;;;;;;2.5;1;;;;;;;7.45;70.5459;933.0123;;;;
2024/01/01 13:32:20;;;;;;;2.4;1.1;;;;;;;7.35;71.12793;933.0186;;;;
2024/01/01 13:34:45;;;;;;;2;1.2;;;;;;;7.32;71.02344;933;;;;
2024/01/01 13:37:23;;;;;;;2.6;1.3;;;;;;;7.26;71.60254;932.9858;;;;
2024/01/01 13:40:03;;;;;;;2.4;1.4;;;;;;;7.16;72.11816;933.0126;;;;
2024/01/01 13:42:42;;;;;;;4.1;1.4;;;;;;;7.16;71.95801;932.9747;;;;
2024/01/01 13:45:20;;;;;;;2.1;1.1;;;;;;;7.13;72.19141;932.9584;;;;
2024/01/01 13:48:00;;;;;;;1.9;1.1;;;;;;;7.17;71.83594;932.8719;;;;
2024/01/01 13:50:44;;;;;;;2.4;1.2;;;;;;;7.14;72.37402;932.8857;;;;
2024/01/01 13:53:22;;;;;;;2.8;1.4;;;;;;;7.08;72.98828;932.8667;;;;
2024/01/01 13:56:01;;;;;;;1.9;1.4;;;;;;;7.07;72.87109;932.8729;;;;
2024/01/01 13:58:39;;;;;;;1.5;1.2;;;;;;;7.05;72.39258;932.7468;;;;
2024/01/01 14:01:17;;;;;;;2.3;1.3;;;;;;;7.1;72.59473;932.8464;;;;
2024/01/01 14:03:43;;;;;;;3.8;2;;;;;;;7.1;74.18066;932.8092;;;;
2024/01/01 14:06:21;;;;;;;2.8;2;;;;;;;7.07;72.98438;932.7946;;;;
2024/01/01 14:08:52;;;;;;;3.3;2.5;;;;;;;7;72.72461;932.7846;;;;
2024/01/01 14:11:33;;;;;;;4.5;2.8;;;;;;;6.96;73.19238;932.8069;;;;
2024/01/01 14:14:20;;;;;;;4.6;2.5;;;;;;;6.95;73.64258;932.8464;;;;
2024/01/01 14:16:58;;;;;;;3.7;1.7;;;;;;;6.91;75.47168;932.8356;;;;
2024/01/01 14:19:36;;;;;;;3.6;1.8;;;;;;;6.88;75.90918;932.8415;;;;
2024/01/01 14:22:13;;;;;;;4.9;1.9;;;;;;;6.92;74.20605;932.8349;;;;
2024/01/01 14:24:52;;;;;;;4.1;1.9;;;;;;;6.95;74.22168;932.7981;;;;
2024/01/01 14:27:32;;;;;;;3.8;2;;;;;;;6.93;74.14063;932.8801;;;;
2024/01/01 14:30:05;;;;;;;4;1.8;;;;;;;6.94;73.04297;932.817;;;;
2024/01/01 14:32:44;;;;;;;2.1;1.2;;;;;;;6.95;72.53613;932.8441;;;;
2024/01/01 14:35:10;;;;;;;1.5;1.2;;;;;;;6.89;72.79688;932.9176;;;;
2024/01/01 14:37:35;;;;;;;3.7;1.5;;;;;;;6.89;74.22168;933.037;;;;
2024/01/01 14:40:16;;;;;;;5.4;2.9;;;;;;;6.84;74.81445;933.0522;;;;
2024/01/01 14:42:54;;;;;;;3.5;2.1;;;;;;;6.78;75.41602;932.964;;;;
2024/01/01 14:45:32;;;;;;;1.2;1.1;;;;;;;6.88;73.79199;932.9286;;;;
2024/01/01 14:48:13;;;;;;;1.2;0.9;;;;;;;6.74;74.19727;933.0583;;;;
2024/01/01 14:50:51;;;;;;;2.3;1.3;;;;;;;6.73;74.80664;933.108;;;;
2024/01/01 14:53:29;;;;;;;2.4;1.8;;;;;;;6.66;76.00488;933.1108;;;;
2024/01/01 14:56:07;;;;;;;4.7;2.8;;;;;;;6.63;76.81445;933.0068;;;;
2024/01/01 14:58:59;;;;;;;4.8;1.9;;;;;;;6.6;76.46875;933.1057;;;;
2024/01/01 15:01:36;;;;;;;5.4;3.3;;;;;;;6.56;77.08398;933.1912;;;;
2024/01/01 15:04:17;;;;;;;8;5.1;;;;;;;6.5;77.87793;933.1714;;;;
2024/01/01 15:06:55;;;;;;;4.4;2.6;;;;;;;6.48;75.54297;933.1188;;;;
2024/01/01 15:09:37;;;;;;;2.3;1.8;;;;;;;6.48;74.43457;933.2019;;;;
2024/01/01 15:12:21;;;;;;;3.3;3;;;;;;;6.5;76.24902;933.2037;;;;
2024/01/01 15:14:59;;;;;;;4.4;3.3;;;;;;;6.42;77.33105;933.3156;;;;
2024/01/01 15:17:39;;;;;;;6.2;4.8;;;;;;;6.36;77.94043;933.3995;;;;
2024/01/01 15:20:17;;;;;;;4.6;3.3;;;;;;;6.33;78.02539;933.4481;;;;
2024/01/01 15:22:42;;;;;;;3.8;2.4;;;;;;;6.33;78.43262;933.3421;;;;
2024/01/01 15:25:20;;;;;;;2.5;1.8;;;;;;;6.31;76.29297;933.4398;;;;
2024/01/01 15:28:02;;;;;;;6.1;2.6;;;;;;;6.21;77.9707;933.6215;;;;
2024/01/01 15:30:46;;;;;;;3.2;2.5;;;;;;;6.15;78.52539;933.4439;;;;
2024/01/01 15:33:26;;;;;;;4.3;2.7;;;;;;;6.19;76.91406;933.5773;;;;